Time;durP1;ratioP1;P1;durP2;ratioP2;P2;SDS_P1;SDS_P2;PMS_P1;PMS_P2;Temp;Humidity;BMP_temperature;BMP_pressure;BME280_temperature;BME280_humidity;BME280_pressure;Samples;Min_cycle;Max_cycle;Signal;HPM_P1;HPM_P2
2022/04/01 00:01:37;;;;;;;30.70;19.23;;;6.50;99.90;;;;;;5030851;28;20186;-74
2022/04/01 00:04:02;;;;;;;28.63;18.20;;;6.50;99.90;;;;;;5041853;28;20440;-72
2022/04/01 00:06:28;;;;;;;28.90;18.70;;;6.50;99.90;;;;;;5029886;28;20189;-72
2022/04/01 00:08:53;;;;;;;29.60;19.47;;;6.50;99.90;;;;;;5028108;28;20197;-72
2022/04/01 00:11:19;;;;;;;30.33;20.20;;;6.50;99.90;;;;;;5025834;28;20181;-72
2022/04/01 00:13:45;;;;;;;32.40;21.20;;;6.50;99.90;;;;;;5009852;28;20661;-72
2022/04/01 00:16:10;;;;;;;32.17;21.07;;;6.60;99.90;;;;;;5026374;28;20238;-72
2022/04/01 00:18:36;;;;;;;31.77;20.60;;;6.50;99.90;;;;;;5027677;28;20190;-72
2022/04/01 00:21:02;;;;;;;30.80;18.83;;;6.10;99.90;;;;;;5020321;28;20209;-72
2022/04/01 00:23:27;;;;;;;32.73;20.80;;;6.50;99.90;;;;;;5008845;28;20285;-72
2022/04/01 00:25:53;;;;;;;29.27;19.50;;;6.50;99.90;;;;;;5033806;28;20177;-72
2022/04/01 00:28:19;;;;;;;30.67;20.00;;;6.50;99.90;;;;;;5026920;28;20173;-72
2022/04/01 00:30:44;;;;;;;28.40;19.43;;;6.60;99.90;;;;;;5027533;28;20432;-73
2022/04/01 00:33:11;;;;;;;29.93;19.33;;;6.60;99.90;;;;;;5036301;28;20177;-72
2022/04/01 00:35:38;;;;;;;33.20;20.23;;;5.80;99.90;;;;;;5013816;28;20181;-71
2022/04/01 00:38:03;;;;;;;31.33;20.70;;;6.50;99.90;;;;;;5016260;28;20452;-72
2022/04/01 00:40:30;;;;;;;30.93;19.50;;;6.50;99.90;;;;;;5032771;28;20546;-72
2022/04/01 00:42:55;;;;;;;30.77;20.73;;;6.50;99.90;;;;;;5032326;28;20520;-71
2022/04/01 00:45:21;;;;;;;28.63;20.47;;;6.40;99.90;;;;;;5032898;28;20456;-72
2022/04/01 00:47:46;;;;;;;31.07;21.60;;;6.40;99.90;;;;;;5033342;28;20181;-72
2022/04/01 00:50:12;;;;;;;32.60;20.70;;;6.70;99.90;;;;;;5032754;28;20246;-72
2022/04/01 00:52:38;;;;;;;34.20;22.07;;;;;;;;;;5033516;28;20174;-72
2022/04/01 00:55:05;;;;;;;32.50;20.60;;;6.40;99.90;;;;;;5014426;28;20584;-72
2022/04/01 00:57:31;;;;;;;32.23;21.30;;;6.40;99.90;;;;;;5032941;28;20901;-72
2022/04/01 00:59:57;;;;;;;32.17;21.30;;;6.40;99.90;;;;;;5032965;28;20424;-73
2022/04/01 01:02:22;;;;;;;32.50;21.67;;;6.50;99.90;;;;;;5032885;28;20209;-72
2022/04/01 01:04:48;;;;;;;34.87;20.80;;;6.50;99.90;;;;;;5037263;28;20683;-70
2022/04/01 01:07:14;;;;;;;33.70;22.40;;;6.50;99.90;;;;;;5033229;28;20265;-72
2022/04/01 01:09:42;;;;;;;33.70;22.50;;;6.60;99.90;;;;;;5033105;28;20189;-73
2022/04/01 01:12:07;;;;;;;35.40;21.77;;;6.60;99.90;;;;;;5014468;28;20276;-72
2022/04/01 01:14:36;;;;;;;35.60;21.43;;;6.90;99.90;;;;;;5032575;28;20555;-72
2022/04/01 01:17:05;;;;;;;32.20;21.50;;;6.50;99.90;;;;;;5020850;28;20542;-72
2022/04/01 01:19:30;;;;;;;33.47;21.83;;;6.50;99.90;;;;;;5030526;28;20471;-72
2022/04/01 01:21:57;;;;;;;34.20;22.47;;;6.50;99.90;;;;;;5032104;28;20475;-72
2022/04/01 01:24:31;;;;;;;32.83;21.43;;;6.50;99.90;;;;;;5014370;28;20221;-72
2022/04/01 01:26:58;;;;;;;33.53;21.77;;;6.50;99.90;;;;;;5031285;28;20486;-72
2022/04/01 01:29:27;;;;;;;32.87;21.27;;;6.40;99.90;;;;;;5032764;28;20424;-72
2022/04/01 01:31:55;;;;;;;33.90;22.60;;;6.40;99.90;;;;;;5040928;28;20427;-72
2022/04/01 01:34:22;;;;;;;37.97;22.00;;;6.40;99.90;;;;;;5023508;28;20719;-71
2022/04/01 01:36:48;;;;;;;33.63;21.93;;;6.40;99.90;;;;;;5032508;28;20557;-72
2022/04/01 01:39:14;;;;;;;34.93;23.40;;;6.50;99.90;;;;;;5032984;28;20556;-73
2022/04/01 01:41:41;;;;;;;36.80;23.60;;;6.50;99.90;;;;;;5003379;28;20881;-72
2022/04/01 01:44:06;;;;;;;35.80;24.10;;;6.50;99.90;;;;;;5033399;28;20518;-70
2022/04/01 01:46:32;;;;;;;33.70;21.67;;;6.50;99.90;;;;;;5012084;28;20431;-71
2022/04/01 01:48:57;;;;;;;36.90;23.77;;;6.50;99.90;;;;;;5030454;28;20249;-70
2022/04/01 01:56:52;;;;;;;35.70;21.67;;;6.50;99.90;;;;;;5029907;28;20578;-71
2022/04/01 01:59:18;;;;;;;36.67;22.40;;;6.50;99.90;;;;;;5030229;28;20524;-71
2022/04/01 02:01:43;;;;;;;33.50;22.10;;;6.50;99.90;;;;;;5019688;28;20201;-72
2022/04/01 02:04:09;;;;;;;37.10;23.33;;;6.40;99.90;;;;;;5019715;28;20733;-73
2022/04/01 02:06:35;;;;;;;35.00;22.53;;;6.40;99.90;;;;;;5011093;28;20609;-71
2022/04/01 02:09:02;;;;;;;34.23;22.80;;;6.60;99.90;;;;;;5030095;28;20325;-73
2022/04/01 02:11:28;;;;;;;35.37;23.83;;;6.40;99.90;;;;;;5028245;28;20417;-72
2022/04/01 02:13:53;;;;;;;33.93;22.83;;;6.40;99.90;;;;;;5029541;28;20457;-72
2022/04/01 02:16:21;;;;;;;31.40;21.50;;;9.70;99.90;;;;;;5029762;28;20631;-71
2022/04/01 02:18:47;;;;;;;31.73;20.80;;;6.40;99.90;;;;;;5012005;28;20181;-71
2022/04/01 02:21:15;;;;;;;30.17;20.70;;;6.70;99.90;;;;;;5028487;28;20612;-70
2022/04/01 02:23:48;;;;;;;31.30;21.13;;;6.40;99.90;;;;;;5026700;28;20930;-71
2022/04/01 02:26:14;;;;;;;29.93;20.60;;;6.40;99.90;;;;;;5010406;28;20736;-70
2022/04/01 02:28:41;;;;;;;29.87;20.10;;;6.40;99.90;;;;;;5017860;28;20573;-71
2022/04/01 02:31:08;;;;;;;31.33;20.73;;;6.40;99.90;;;;;;5028946;28;20463;-70
2022/04/01 02:33:35;;;;;;;28.73;19.97;;;6.40;99.90;;;;;;5029670;28;21033;-71
2022/04/01 02:36:02;;;;;;;28.77;19.90;;;6.40;99.90;;;;;;5028450;28;20486;-73
2022/04/01 02:38:29;;;;;;;31.53;21.13;;;6.40;99.90;;;;;;5029339;28;20429;-71
2022/04/01 02:40:56;;;;;;;28.47;20.47;;;6.40;99.90;;;;;;5010288;28;20795;-73
2022/04/01 02:43:22;;;;;;;30.67;20.93;;;6.50;99.90;;;;;;5008409;28;20435;-71
2022/04/01 02:45:48;;;;;;;30.83;21.10;;;6.50;99.90;;;;;;5028423;28;20412;-71
2022/04/01 02:48:15;;;;;;;29.23;20.77;;;6.40;99.90;;;;;;5030278;28;20475;-72
2022/04/01 02:50:41;;;;;;;30.53;21.47;;;6.50;99.90;;;;;;5028680;28;20450;-70
2022/04/01 02:53:07;;;;;;;31.00;20.70;;;6.30;99.90;;;;;;5028325;28;20435;-71
2022/04/01 02:55:32;;;;;;;30.00;21.40;;;6.40;99.90;;;;;;5021078;28;20905;-70
2022/04/01 02:57:59;;;;;;;33.23;20.90;;;6.40;99.90;;;;;;5040741;28;20181;-71
2022/04/01 03:00:24;;;;;;;32.43;21.87;;;6.50;99.90;;;;;;5010975;28;20193;-71
2022/04/01 03:02:50;;;;;;;28.03;20.60;;;6.40;99.90;;;;;;5028760;28;20421;-71
2022/04/01 03:05:17;;;;;;;30.77;21.70;;;6.40;99.90;;;;;;5010607;28;20194;-71
2022/04/01 03:07:44;;;;;;;29.27;20.53;;;6.40;99.90;;;;;;5029206;28;20170;-71
2022/04/01 03:10:10;;;;;;;30.90;21.10;;;6.40;99.90;;;;;;5028053;28;20933;-72
2022/04/01 03:12:36;;;;;;;29.03;21.17;;;6.40;99.90;;;;;;5008980;28;20444;-71
2022/04/01 03:15:03;;;;;;;29.40;20.43;;;6.40;99.90;;;;;;5028354;28;20542;-72
2022/04/01 03:17:29;;;;;;;27.87;19.70;;;6.40;99.90;;;;;;5029099;28;20299;-72
2022/04/01 03:19:55;;;;;;;30.97;21.70;;;6.30;99.90;;;;;;5027593;28;20456;-72
2022/04/01 03:22:20;;;;;;;30.00;21.00;;;6.30;99.90;;;;;;5010631;28;20468;-72
2022/04/01 03:24:46;;;;;;;30.23;20.60;;;6.30;99.90;;;;;;5015477;28;20339;-71
2022/04/01 03:27:12;;;;;;;28.03;20.13;;;6.30;99.90;;;;;;5038599;28;20171;-72
2022/04/01 03:29:38;;;;;;;27.57;19.87;;;6.30;99.90;;;;;;5027929;28;20438;-72
2022/04/01 03:32:04;;;;;;;29.47;20.60;;;6.40;99.90;;;;;;5028351;28;20876;-73
2022/04/01 03:34:31;;;;;;;29.87;21.30;;;6.30;99.90;;;;;;5028291;28;20247;-71
2022/04/01 03:36:56;;;;;;;28.33;19.93;;;6.20;99.90;;;;;;5027569;28;20178;-72
2022/04/01 03:39:23;;;;;;;28.30;20.50;;;6.20;99.90;;;;;;5027702;28;20539;-72
2022/04/01 03:41:49;;;;;;;29.57;20.83;;;6.30;99.90;;;;;;5027106;28;20355;-73
2022/04/01 03:44:15;;;;;;;28.40;20.47;;;6.30;99.90;;;;;;5010215;28;20433;-72
2022/04/01 03:46:49;;;;;;;28.77;20.20;;;6.30;99.90;;;;;;5010291;28;20413;-72
2022/04/01 03:49:22;;;;;;;29.20;20.70;;;6.30;99.90;;;;;;5027581;28;20421;-72
2022/04/01 03:51:49;;;;;;;28.57;20.80;;;6.30;99.90;;;;;;5027181;28;20932;-73
2022/04/01 03:54:16;;;;;;;30.63;21.60;;;6.30;99.90;;;;;;5027276;28;20444;-73
2022/04/01 03:56:48;;;;;;;26.60;19.40;;;6.30;99.90;;;;;;5026785;28;20507;-71
2022/04/01 03:59:17;;;;;;;26.83;19.43;;;6.30;99.90;;;;;;5027831;28;21002;-73
2022/04/01 04:01:43;;;;;;;28.93;20.40;;;6.20;99.90;;;;;;5027557;28;20491;-71
2022/04/01 04:04:09;;;;;;;32.07;21.97;;;6.30;99.90;;;;;;5009457;28;20858;-72
2022/04/01 04:06:37;;;;;;;27.37;19.40;;;6.20;99.90;;;;;;5007724;28;20194;-71
2022/04/01 04:09:03;;;;;;;28.47;20.73;;;6.10;99.90;;;;;;5021554;28;20428;-71
2022/04/01 04:11:33;;;;;;;27.90;19.90;;;6.20;99.90;;;;;;5025883;28;20514;-71
2022/04/01 04:14:01;;;;;;;28.50;20.60;;;6.20;99.90;;;;;;5026998;28;20460;-71
2022/04/01 04:16:34;;;;;;;28.17;20.80;;;6.30;99.90;;;;;;5027796;28;20478;-71
2022/04/01 04:19:22;;;;;;;28.70;20.47;;;6.30;99.90;;;;;;5027576;28;20452;-71
2022/04/01 04:22:11;;;;;;;33.63;21.87;;;6.20;99.90;;;;;;4999911;28;20465;-71
2022/04/01 04:24:43;;;;;;;29.10;20.47;;;6.20;99.90;;;;;;5031403;28;20574;-70
2022/04/01 04:27:13;;;;;;;29.93;20.60;;;6.10;99.90;;;;;;5038256;28;20434;-71
2022/04/01 04:29:50;;;;;;;29.43;21.17;;;6.30;99.90;;;;;;5027399;28;20417;-71
2022/04/01 04:32:33;;;;;;;29.43;20.73;;;6.20;99.90;;;;;;5026948;28;20416;-71
2022/04/01 04:35:04;;;;;;;29.37;19.57;;;6.20;99.90;;;;;;5026887;28;20449;-70
2022/04/01 04:37:32;;;;;;;32.97;21.67;;;6.20;99.90;;;;;;5027864;28;20456;-71
2022/04/01 04:39:59;;;;;;;28.17;20.50;;;6.20;99.90;;;;;;5026822;28;20458;-71
2022/04/01 04:42:26;;;;;;;26.40;19.50;;;6.20;99.90;;;;;;5023628;28;20463;-71
2022/04/01 04:44:53;;;;;;;29.90;20.27;;;6.20;99.90;;;;;;5026055;28;20791;-70
2022/04/01 04:47:26;;;;;;;28.27;19.97;;;6.20;99.90;;;;;;5021001;28;20416;-71
2022/04/01 04:49:53;;;;;;;29.70;20.27;;;6.20;99.90;;;;;;5008455;28;20650;-70
2022/04/01 04:52:20;;;;;;;28.70;19.63;;;6.10;99.90;;;;;;5026795;28;20424;-72
2022/04/01 04:54:47;;;;;;;30.70;21.33;;;6.10;99.90;;;;;;5027244;28;20542;-71
2022/04/01 04:57:15;;;;;;;30.70;20.23;;;6.10;99.90;;;;;;5040636;28;20431;-72
2022/04/01 04:59:42;;;;;;;28.87;19.90;;;6.10;99.90;;;;;;5027224;28;20424;-71
2022/04/01 05:02:16;;;;;;;28.33;19.53;;;6.10;99.90;;;;;;5026886;28;20559;-71
2022/04/01 05:05:00;;;;;;;29.50;20.67;;;6.10;99.90;;;;;;5026574;28;20455;-71
2022/04/01 05:08:19;;;;;;;30.03;19.90;;;6.10;99.90;;;;;;5027380;28;20463;-71
2022/04/01 05:10:55;;;;;;;29.03;20.07;;;6.10;99.90;;;;;;4945643;29;20458;-70
2022/04/01 05:13:48;;;;;;;29.70;20.40;;;6.10;99.90;;;;;;5014545;28;20444;-70
2022/04/01 05:16:30;;;;;;;30.27;20.57;;;6.10;99.90;;;;;;5024583;28;20603;-70
2022/04/01 05:19:03;;;;;;;29.10;19.60;;;6.10;99.90;;;;;;5026951;28;20442;-71
2022/04/01 05:21:38;;;;;;;28.03;19.30;;;6.10;99.90;;;;;;5012141;28;20776;-71
2022/04/01 05:24:06;;;;;;;33.30;21.50;;;6.10;99.90;;;;;;5016228;28;20830;-70
2022/04/01 05:26:41;;;;;;;29.50;18.97;;;6.00;99.90;;;;;;5036749;28;20995;-70
2022/04/01 05:29:17;;;;;;;27.97;19.00;;;6.10;99.90;;;;;;5030837;28;20403;-71
2022/04/01 05:32:03;;;;;;;27.53;19.63;;;6.00;99.90;;;;;;5029944;28;20425;-71
2022/04/01 05:34:49;;;;;;;30.03;19.77;;;6.10;99.90;;;;;;5030004;28;20459;-69
2022/04/01 05:37:16;;;;;;;29.60;19.87;;;6.10;99.90;;;;;;5012412;28;20428;-71
2022/04/01 05:39:48;;;;;;;28.00;19.10;;;6.10;99.90;;;;;;5029967;28;20457;-71
2022/04/01 05:42:15;;;;;;;28.73;18.30;;;6.00;99.90;;;;;;5029194;28;20472;-70
2022/04/01 05:44:42;;;;;;;28.57;19.00;;;6.00;99.90;;;;;;5029818;28;20448;-71
2022/04/01 05:47:08;;;;;;;30.90;19.97;;;6.00;99.90;;;;;;5029702;28;20416;-71
2022/04/01 05:49:40;;;;;;;26.90;18.50;;;6.00;99.90;;;;;;5029889;28;20428;-71
2022/04/01 05:52:08;;;;;;;25.10;17.30;;;6.30;99.90;;;;;;5022186;28;20447;-72
2022/04/01 05:54:34;;;;;;;25.47;16.90;;;6.90;99.90;;;;;;5029184;28;20802;-71
2022/04/01 05:57:01;;;;;;;24.63;15.90;;;7.70;99.90;;;;;;5023110;28;20440;-71
2022/04/01 05:59:26;;;;;;;21.40;16.43;;;7.50;99.90;;;;;;5030038;28;20421;-72
2022/04/01 06:02:13;;;;;;;22.37;17.00;;;7.80;99.90;;;;;;5010246;28;20460;-71
2022/04/01 06:05:01;;;;;;;40.00;16.07;;;7.70;99.90;;;;;;5008737;28;20411;-71
2022/04/01 06:07:44;;;;;;;25.07;18.10;;;8.00;99.90;;;;;;5028523;28;20776;-73
2022/04/01 06:10:23;;;;;;;28.37;19.60;;;7.90;99.90;;;;;;5029052;28;20422;-70
2022/04/01 06:13:13;;;;;;;27.03;18.13;;;7.60;99.90;;;;;;5028661;28;20415;-70
2022/04/01 06:15:59;;;;;;;26.10;18.57;;;7.20;99.90;;;;;;5026506;28;20440;-70
2022/04/01 06:18:46;;;;;;;23.50;17.97;;;6.90;99.90;;;;;;5022071;28;20520;-70
2022/04/01 06:21:20;;;;;;;27.70;18.50;;;6.80;99.90;;;;;;5025467;28;20864;-71
2022/04/01 06:23:52;;;;;;;28.23;18.43;;;6.60;99.90;;;;;;5030671;28;20468;-71
2022/04/01 06:26:18;;;;;;;24.53;17.37;;;6.50;99.90;;;;;;5041013;28;20965;-71
2022/04/01 06:28:59;;;;;;;24.70;17.60;;;6.50;99.90;;;;;;5026856;28;20439;-71
2022/04/01 06:31:26;;;;;;;25.80;16.70;;;6.40;99.90;;;;;;5033039;28;20186;-71
2022/04/01 06:34:14;;;;;;;25.80;17.57;;;6.40;99.90;;;;;;5028782;28;20464;-71
2022/04/01 06:36:50;;;;;;;21.50;15.73;;;6.30;99.90;;;;;;5027334;28;20767;-70
2022/04/01 06:39:46;;;;;;;26.23;18.13;;;6.40;99.90;;;;;;5030358;28;20443;-71
2022/04/01 06:42:19;;;;;;;24.27;18.20;;;6.40;99.90;;;;;;5029487;28;20810;-71
2022/04/01 06:44:46;;;;;;;27.30;17.60;;;6.40;99.90;;;;;;5025757;28;20440;-72
2022/04/01 06:47:12;;;;;;;25.50;17.87;;;6.40;99.90;;;;;;5027288;28;20465;-72
2022/04/01 06:49:37;;;;;;;24.40;17.60;;;6.40;99.90;;;;;;5024371;28;20460;-71
2022/04/01 06:52:03;;;;;;;26.10;18.20;;;6.50;99.90;;;;;;5033184;28;20291;-71
2022/04/01 06:54:29;;;;;;;24.10;18.20;;;6.40;99.90;;;;;;5035681;28;20638;-70
2022/04/01 06:56:55;;;;;;;25.47;18.23;;;6.40;99.90;;;;;;5037742;28;20478;-71
2022/04/01 06:59:20;;;;;;;26.83;18.60;;;6.50;99.90;;;;;;5029486;28;20608;-71
2022/04/01 07:01:46;;;;;;;23.57;17.17;;;6.50;99.90;;;;;;5030336;28;20643;-71
2022/04/01 07:04:12;;;;;;;24.23;17.77;;;6.60;99.90;;;;;;5017996;28;20277;-71
2022/04/01 07:06:38;;;;;;;25.87;17.80;;;6.60;99.90;;;;;;5027711;28;20177;-71
2022/04/01 07:09:04;;;;;;;22.60;16.67;;;6.60;99.90;;;;;;5029091;28;20424;-70
2022/04/01 07:11:30;;;;;;;22.10;16.00;;;6.40;99.90;;;;;;5026137;28;20424;-71
2022/04/01 07:13:55;;;;;;;24.30;17.27;;;6.50;99.90;;;;;;5027565;28;20241;-71
2022/04/01 07:16:21;;;;;;;21.90;16.67;;;6.50;99.90;;;;;;5023351;28;20478;-71
2022/04/01 07:18:46;;;;;;;23.83;17.53;;;6.50;99.90;;;;;;5014978;28;20178;-72
2022/04/01 07:21:13;;;;;;;24.23;17.73;;;6.50;99.90;;;;;;5028732;28;20228;-70
2022/04/01 07:23:38;;;;;;;24.53;17.50;;;6.50;99.90;;;;;;5037613;28;20193;-71
2022/04/01 07:26:04;;;;;;;26.00;17.63;;;6.40;99.90;;;;;;5036858;28;20416;-71
2022/04/01 07:28:30;;;;;;;22.93;17.07;;;6.50;99.90;;;;;;5010421;28;20557;-71
2022/04/01 07:30:56;;;;;;;25.63;18.73;;;6.40;99.90;;;;;;5010224;28;20427;-71
2022/04/01 07:33:22;;;;;;;24.90;17.83;;;6.40;99.90;;;;;;5027837;28;20192;-71
2022/04/01 07:35:48;;;;;;;25.77;18.63;;;6.40;99.90;;;;;;5028301;28;20227;-71
2022/04/01 07:38:14;;;;;;;24.43;18.20;;;6.40;99.90;;;;;;5028295;28;20174;-72
2022/04/01 07:40:40;;;;;;;23.43;17.30;;;6.40;99.90;;;;;;5028625;28;20519;-72
2022/04/01 07:43:06;;;;;;;22.87;16.70;;;6.40;99.90;;;;;;5028142;28;20432;-69
2022/04/01 07:45:34;;;;;;;22.37;15.90;;;6.40;99.90;;;;;;5027412;28;20247;-69
2022/04/01 07:48:00;;;;;;;22.87;16.60;;;6.40;99.90;;;;;;5013319;28;20270;-71
2022/04/01 07:50:27;;;;;;;21.40;16.00;;;6.40;99.90;;;;;;5009548;28;20432;-70
2022/04/01 07:52:53;;;;;;;22.50;15.23;;;6.50;99.90;;;;;;5035887;28;20416;-69
2022/04/01 07:55:19;;;;;;;21.50;15.60;;;6.50;99.90;;;;;;5026193;28;20436;-70
2022/04/01 07:57:47;;;;;;;21.93;16.23;;;6.50;99.90;;;;;;5027076;28;20538;-71
2022/04/01 08:00:17;;;;;;;20.53;14.57;;;6.50;99.90;;;;;;5027997;28;20767;-69
2022/04/01 08:02:44;;;;;;;19.13;14.90;;;6.50;99.90;;;;;;5027868;28;20559;-71
2022/04/01 08:05:10;;;;;;;19.97;14.07;;;6.60;99.90;;;;;;5027242;28;20440;-71
2022/04/01 08:07:36;;;;;;;19.70;15.03;;;6.50;99.90;;;;;;5034481;28;20474;-72
2022/04/01 08:10:04;;;;;;;18.87;14.00;;;6.50;99.90;;;;;;5042065;28;20504;-71
2022/04/01 08:12:34;;;;;;;16.23;13.30;;;6.50;99.90;;;;;;5038132;28;20917;-71
2022/04/01 08:15:00;;;;;;;17.20;12.80;;;6.50;99.90;;;;;;5032504;28;20887;-71
2022/04/01 08:17:25;;;;;;;17.70;13.67;;;6.60;99.90;;;;;;5037669;28;20515;-71
2022/04/01 08:19:51;;;;;;;17.23;12.37;;;6.70;99.90;;;;;;5029223;28;20197;-71
2022/04/01 08:22:18;;;;;;;20.03;13.70;;;6.70;99.90;;;;;;5033238;28;20193;-71
2022/04/01 08:24:44;;;;;;;20.40;14.40;;;6.70;99.90;;;;;;5019872;28;20246;-71
2022/04/01 08:27:11;;;;;;;15.27;12.20;;;6.60;99.90;;;;;;5033036;28;20940;-70
2022/04/01 08:29:37;;;;;;;16.53;12.73;;;6.60;99.90;;;;;;5037987;28;20417;-70
2022/04/01 08:32:05;;;;;;;14.53;12.63;;;6.60;99.90;;;;;;5036331;28;20423;-71
2022/04/01 08:34:31;;;;;;;15.43;12.50;;;6.70;99.90;;;;;;5038473;28;20718;-70
2022/04/01 08:36:56;;;;;;;19.43;14.00;;;6.70;99.90;;;;;;5013752;28;20437;-70
2022/04/01 08:39:23;;;;;;;21.87;14.40;;;6.60;99.90;;;;;;5037344;28;20226;-71
2022/04/01 08:41:49;;;;;;;23.40;13.03;;;6.60;99.90;;;;;;5011141;28;20201;-71
2022/04/01 08:44:14;;;;;;;17.10;13.73;;;6.60;99.90;;;;;;5014365;28;20578;-73
2022/04/01 08:46:40;;;;;;;18.43;13.00;;;6.60;99.90;;;;;;5009459;28;20684;-71
2022/04/01 08:49:06;;;;;;;18.13;13.77;;;6.60;99.90;;;;;;5032471;28;20169;-71
2022/04/01 08:51:32;;;;;;;22.10;14.10;;;6.60;99.90;;;;;;5036567;28;20254;-71
2022/04/01 08:53:58;;;;;;;17.63;13.23;;;6.60;99.90;;;;;;5028131;28;20523;-71
2022/04/01 08:56:24;;;;;;;17.80;14.00;;;6.60;99.90;;;;;;5029133;28;20812;-72
2022/04/01 08:58:50;;;;;;;20.50;14.97;;;6.50;99.90;;;;;;5034075;28;20189;-70
2022/04/01 09:01:16;;;;;;;19.20;14.60;;;6.40;99.90;;;;;;5027010;28;20297;-71
2022/04/01 09:03:42;;;;;;;24.00;14.33;;;6.40;99.90;;;;;;5043400;28;20435;-71
2022/04/01 09:06:08;;;;;;;19.33;14.30;;;6.50;99.90;;;;;;5032656;28;20431;-71
2022/04/01 09:08:45;;;;;;;20.43;14.03;;;6.60;99.90;;;;;;5030642;28;20421;-70
2022/04/01 09:11:17;;;;;;;17.23;13.83;;;6.60;99.90;;;;;;5035730;28;20805;-72
2022/04/01 09:13:42;;;;;;;18.47;13.73;;;6.70;99.90;;;;;;5040827;28;20478;-70
2022/04/01 09:16:08;;;;;;;18.30;13.10;;;6.40;99.90;;;;;;5038240;28;20432;-72
2022/04/01 09:18:36;;;;;;;15.37;12.73;;;6.40;99.90;;;;;;5032095;28;20217;-71
2022/04/01 09:21:02;;;;;;;17.27;13.40;;;6.30;99.90;;;;;;5016716;28;20785;-70
2022/04/01 09:23:28;;;;;;;24.43;14.10;;;6.60;99.90;;;;;;5038386;28;20926;-70
2022/04/01 09:25:53;;;;;;;18.90;13.63;;;6.40;99.90;;;;;;5029563;28;20411;-70
2022/04/01 09:28:31;;;;;;;20.17;13.57;;;6.40;99.90;;;;;;5036599;28;20613;-71
2022/04/01 09:30:59;;;;;;;16.80;13.33;;;6.30;99.90;;;;;;5013475;28;20178;-69
2022/04/01 09:33:47;;;;;;;17.23;13.33;;;6.30;99.90;;;;;;5018744;28;20427;-70
2022/04/01 09:36:17;;;;;;;18.00;13.53;;;6.30;99.90;;;;;;5034044;28;20565;-71
2022/04/01 09:38:53;;;;;;;21.80;13.80;;;6.30;99.90;;;;;;5044614;28;20431;-71
2022/04/01 09:41:19;;;;;;;23.83;14.67;;;6.30;99.90;;;;;;5043953;28;20557;-70
2022/04/01 09:43:45;;;;;;;19.13;14.30;;;6.50;99.90;;;;;;5039346;28;20527;-69
2022/04/01 09:46:26;;;;;;;18.07;14.90;;;6.30;99.90;;;;;;5029450;28;20416;-71
2022/04/01 09:48:56;;;;;;;19.13;14.13;;;6.20;99.90;;;;;;5039366;28;20712;-72
2022/04/01 09:51:21;;;;;;;20.77;14.13;;;6.30;99.90;;;;;;5033646;28;20433;-72
2022/04/01 09:53:54;;;;;;;18.10;13.50;;;6.30;99.90;;;;;;5041221;28;20579;-71
2022/04/01 09:56:39;;;;;;;18.27;14.33;;;6.40;99.90;;;;;;5020751;28;20701;-70
2022/04/01 09:59:05;;;;;;;17.90;12.93;;;6.20;99.90;;;;;;5023562;28;20488;-71
2022/04/01 10:01:36;;;;;;;24.10;13.30;;;6.20;99.90;;;;;;5030330;28;20460;-71
2022/04/01 10:04:02;;;;;;;21.93;14.97;;;6.30;99.90;;;;;;5030886;28;20519;-71
2022/04/01 10:06:30;;;;;;;20.20;14.93;;;6.40;99.90;;;;;;5011588;28;20432;-70
2022/04/01 10:08:59;;;;;;;19.77;13.90;;;6.20;99.90;;;;;;5028772;28;20884;-71
2022/04/01 10:11:26;;;;;;;17.40;14.03;;;6.20;99.90;;;;;;5037228;28;20404;-71
2022/04/01 10:13:53;;;;;;;18.27;14.10;;;6.20;99.90;;;;;;5025403;28;21051;-71
2022/04/01 10:16:20;;;;;;;17.93;14.30;;;6.20;99.90;;;;;;5029449;28;20494;-70
2022/04/01 10:18:47;;;;;;;17.47;13.00;;;6.30;99.90;;;;;;5038135;28;20427;-70
2022/04/01 10:21:17;;;;;;;20.10;15.00;;;6.20;99.90;;;;;;5035053;28;20517;-70
2022/04/01 10:23:48;;;;;;;17.37;14.30;;;6.20;99.90;;;;;;5031841;28;20447;-70
2022/04/01 10:26:18;;;;;;;18.97;14.90;;;6.20;99.90;;;;;;5032195;28;20825;-71
2022/04/01 10:28:45;;;;;;;18.73;14.30;;;6.20;99.90;;;;;;5014670;28;20421;-70
2022/04/01 10:31:14;;;;;;;20.53;14.13;;;6.10;99.90;;;;;;5025953;28;20476;-70
2022/04/01 10:33:40;;;;;;;20.10;14.30;;;6.20;99.90;;;;;;5031502;28;20531;-72
2022/04/01 10:36:20;;;;;;;19.60;15.10;;;6.10;99.90;;;;;;5034356;28;21069;-70
2022/04/01 10:38:48;;;;;;;17.37;13.17;;;6.30;99.90;;;;;;5036779;28;20319;-70
2022/04/01 10:41:15;;;;;;;24.57;13.40;;;6.30;99.90;;;;;;5040458;28;20459;-70
2022/04/01 10:43:43;;;;;;;21.47;13.40;;;6.30;99.90;;;;;;5038949;28;20443;-70
2022/04/01 10:46:11;;;;;;;19.00;14.50;;;6.20;99.90;;;;;;5040586;28;20414;-70
2022/04/01 10:51:37;;;;;;;18.10;13.07;;;6.20;99.90;;;;;;5027816;28;20586;-72
2022/04/01 10:54:12;;;;;;;17.17;12.63;;;6.40;99.90;;;;;;5029013;28;20471;-70
2022/04/01 10:56:41;;;;;;;16.70;12.30;;;6.60;99.90;;;;;;5010302;28;20428;-70
2022/04/01 10:59:07;;;;;;;13.83;11.30;;;6.70;99.90;;;;;;5043109;28;20415;-73
2022/04/01 11:01:35;;;;;;;14.23;11.60;;;6.70;99.90;;;;;;5013920;28;20460;-70
2022/04/01 11:04:12;;;;;;;16.90;12.37;;;6.70;99.90;;;;;;5028222;28;20581;-71
2022/04/01 11:06:51;;;;;;;17.10;11.40;;;6.90;99.90;;;;;;5032603;28;20474;-71
2022/04/01 11:09:38;;;;;;;16.50;12.17;;;7.00;99.90;;;;;;5038994;28;20415;-71
2022/04/01 11:12:16;;;;;;;19.03;11.50;;;6.90;99.90;;;;;;5034848;28;20771;-71
2022/04/01 11:14:56;;;;;;;15.00;11.37;;;6.80;99.90;;;;;;5040746;28;20973;-71
2022/04/01 11:17:30;;;;;;;15.10;12.30;;;6.70;99.90;;;;;;5044136;28;20920;-70
2022/04/01 11:20:32;;;;;;;16.33;11.83;;;6.80;99.90;;;;;;5028300;28;20503;-69
2022/04/01 11:22:59;;;;;;;15.80;11.40;;;6.90;99.90;;;;;;5025890;28;20420;-70
2022/04/01 11:25:24;;;;;;;14.77;11.40;;;6.80;99.90;;;;;;5031925;28;20849;-71
2022/04/01 11:27:59;;;;;;;12.77;9.80;;;6.80;99.90;;;;;;5037861;28;20441;-70
2022/04/01 11:30:29;;;;;;;14.40;10.00;;;6.70;99.90;;;;;;5039889;28;20263;-71
2022/04/01 11:32:58;;;;;;;12.37;10.10;;;6.50;99.90;;;;;;5037690;28;20451;-70
2022/04/01 11:35:29;;;;;;;23.70;9.73;;;6.50;99.90;;;;;;5033845;28;20437;-70
2022/04/01 11:37:55;;;;;;;11.87;9.60;;;6.60;99.90;;;;;;5038276;28;20428;-70
2022/04/01 11:40:25;;;;;;;11.83;8.97;;;6.60;99.90;;;;;;5039388;28;20944;-70
2022/04/01 11:42:58;;;;;;;12.50;9.73;;;6.60;99.90;;;;;;5037323;28;20363;-70
2022/04/01 11:45:28;;;;;;;13.60;10.50;;;6.30;99.90;;;;;;5014095;28;20668;-73
2022/04/01 11:47:54;;;;;;;12.07;9.60;;;6.30;99.90;;;;;;5028135;28;20425;-72
2022/04/01 11:50:22;;;;;;;12.73;10.13;;;6.30;99.90;;;;;;5037837;28;20412;-71
2022/04/01 11:52:50;;;;;;;12.67;9.00;;;6.40;99.90;;;;;;5041419;28;20263;-71
2022/04/01 11:55:28;;;;;;;10.40;8.90;;;6.40;99.90;;;;;;5027013;28;20436;-71
2022/04/01 11:57:55;;;;;;;13.57;9.40;;;6.60;99.90;;;;;;5017748;28;20414;-71
2022/04/01 12:00:24;;;;;;;11.43;9.30;;;6.60;99.90;;;;;;5030965;28;20436;-72
2022/04/01 12:02:51;;;;;;;15.07;10.13;;;6.60;99.90;;;;;;5043112;28;20713;-72
2022/04/01 12:05:17;;;;;;;12.97;9.73;;;6.60;99.90;;;;;;5042684;28;20481;-71
2022/04/01 12:10:36;;;;;;;13.37;9.87;;;6.20;99.90;;;;;;5028055;28;20399;-71
2022/04/01 12:13:08;;;;;;;12.27;9.67;;;6.20;99.90;;;;;;5029955;28;20424;-71
2022/04/01 12:15:40;;;;;;;16.20;9.60;;;6.10;99.90;;;;;;5039413;28;20215;-71
2022/04/01 12:18:08;;;;;;;13.27;9.50;;;6.10;99.90;;;;;;5023766;28;20854;-73
2022/04/01 12:20:39;;;;;;;14.70;9.93;;;6.00;99.90;;;;;;5014798;28;20557;-71
2022/04/01 12:23:05;;;;;;;12.33;9.50;;;6.00;99.90;;;;;;5024472;28;20428;-72
2022/04/01 12:25:33;;;;;;;15.70;10.23;;;6.10;99.90;;;;;;5025946;28;20452;-72
2022/04/01 12:28:04;;;;;;;11.80;9.30;;;6.20;99.90;;;;;;5026314;28;20937;-72
2022/04/01 12:30:32;;;;;;;11.60;9.20;;;6.40;99.90;;;;;;5009421;28;20416;-72
2022/04/01 12:33:01;;;;;;;11.20;8.90;;;6.20;99.90;;;;;;5027731;28;20416;-72
2022/04/01 12:35:27;;;;;;;10.80;9.17;;;6.20;99.90;;;;;;5027049;28;20451;-73
2022/04/01 12:38:10;;;;;;;11.30;8.33;;;6.20;99.90;;;;;;5040766;28;20424;-73
2022/04/01 12:40:44;;;;;;;10.40;8.30;;;6.10;99.90;;;;;;5030360;28;20196;-72
2022/04/01 12:43:31;;;;;;;11.57;9.60;;;6.00;99.90;;;;;;5040321;28;20503;-72
2022/04/01 12:46:00;;;;;;;11.87;9.40;;;6.00;99.90;;;;;;5026780;28;20903;-71
2022/04/01 12:48:26;;;;;;;11.03;8.80;;;6.10;99.90;;;;;;5027886;28;20421;-72
2022/04/01 12:50:57;;;;;;;10.70;8.80;;;6.00;99.90;;;;;;5027459;28;20409;-71
2022/04/01 12:53:22;;;;;;;10.90;8.60;;;5.90;99.90;;;;;;5027492;28;20419;-72
2022/04/01 12:55:48;;;;;;;9.80;8.73;;;5.90;99.90;;;;;;5036216;28;20421;-73
2022/04/01 12:58:14;;;;;;;8.67;7.70;;;5.90;99.90;;;;;;5037864;28;20177;-71
2022/04/01 13:00:40;;;;;;;9.50;7.70;;;5.80;99.90;;;;;;5027791;28;20368;-70